Time;durP1;ratioP1;P1;durP2;ratioP2;P2;SDS_P1;SDS_P2;PMS_P1;PMS_P2;Temp;Humidity;BMP_temperature;BMP_pressure;BME280_temperature;BME280_humidity;BME280_pressure;Samples;Min_cycle;Max_cycle;Signal;HPM_P1;HPM_P2
2023/12/25 00:01:21;;;;;;;;;;;18.00;69.60;;;;;;10327716;28;94647;-65
2023/12/25 00:06:23;;;;;;;;;;;17.90;69.30;;;;;;10328070;28;93463;-64
2023/12/25 00:11:25;;;;;;;;;;;17.90;69.00;;;;;;10328283;28;94484;-64
2023/12/25 00:16:27;;;;;;;;;;;17.90;68.70;;;;;;10328479;28;94278;-64
2023/12/25 00:21:29;;;;;;;;;;;17.90;68.50;;;;;;10309425;28;94094;-64
2023/12/25 00:26:31;;;;;;;;;;;17.90;68.20;;;;;;10326221;28;93424;-64
2023/12/25 00:31:33;;;;;;;;;;;17.90;68.00;;;;;;10328582;28;92826;-63
2023/12/25 00:36:34;;;;;;;;;;;17.90;67.90;;;;;;10325352;28;94099;-64
2023/12/25 00:41:36;;;;;;;;;;;17.80;67.40;;;;;;10327936;28;93395;-64
2023/12/25 00:46:38;;;;;;;;;;;17.80;67.20;;;;;;10324106;28;96236;-64
2023/12/25 00:51:40;;;;;;;;;;;17.80;67.10;;;;;;10327211;28;94535;-64
2023/12/25 00:56:41;;;;;;;;;;;17.80;66.90;;;;;;10308942;28;93364;-64
2023/12/25 01:01:46;;;;;;;;;;;17.80;66.80;;;;;;10309562;28;93801;-64
2023/12/25 01:06:48;;;;;;;;;;;17.80;66.50;;;;;;10325480;28;93881;-64
2023/12/25 01:11:50;;;;;;;;;;;17.70;66.40;;;;;;10324609;28;93389;-64
2023/12/25 01:16:52;;;;;;;;;;;17.70;66.10;;;;;;10324100;28;94493;-64
2023/12/25 01:21:53;;;;;;;;;;;17.70;66.00;;;;;;10326249;28;92775;-64
2023/12/25 01:26:55;;;;;;;;;;;17.80;66.00;;;;;;10316858;28;94324;-64
2023/12/25 01:31:57;;;;;;;;;;;17.80;65.80;;;;;;10323910;28;93456;-64
2023/12/25 01:36:59;;;;;;;;;;;17.70;65.40;;;;;;10321625;28;97346;-64
2023/12/25 01:42:01;;;;;;;;;;;17.70;65.20;;;;;;10324408;28;93937;-64
2023/12/25 01:47:02;;;;;;;;;;;17.70;65.20;;;;;;10325378;28;94318;-64
2023/12/25 01:52:04;;;;;;;;;;;17.70;65.00;;;;;;10324420;28;92782;-64
2023/12/25 01:57:06;;;;;;;;;;;17.70;64.80;;;;;;10322376;28;94454;-64
2023/12/25 02:07:27;;;;;;;;;;;17.70;64.70;;;;;;10240392;28;94358;-44
2023/12/25 02:12:28;;;;;;;;;;;17.70;65.20;;;;;;10269908;28;92821;-43
2023/12/25 02:17:31;;;;;;;;;;;17.70;65.40;;;;;;10282481;28;93403;-43
2023/12/25 02:22:33;;;;;;;;;;;17.70;65.40;;;;;;10259641;28;94085;-47
2023/12/25 02:27:35;;;;;;;;;;;17.70;65.30;;;;;;10270410;28;95457;-44
2023/12/25 02:32:37;;;;;;;;;;;17.70;64.80;;;;;;10277132;28;93475;-47
2023/12/25 02:37:39;;;;;;;;;;;17.70;64.50;;;;;;10273278;28;93676;-47
2023/12/25 02:42:41;;;;;;;;;;;17.70;64.30;;;;;;10252598;28;94453;-45
2023/12/25 02:47:43;;;;;;;;;;;17.70;64.20;;;;;;10261524;28;93556;-45
2023/12/25 02:52:45;;;;;;;;;;;17.60;63.80;;;;;;10278368;28;94369;-46
2023/12/25 02:57:47;;;;;;;;;;;17.70;63.80;;;;;;10273607;28;94416;-45
2023/12/25 03:02:49;;;;;;;;;;;17.60;64.00;;;;;;10262149;28;93206;-44
2023/12/25 03:07:51;;;;;;;;;;;17.50;64.50;;;;;;10274836;28;95129;-45
2023/12/25 03:12:53;;;;;;;;;;;17.50;64.70;;;;;;10273882;28;94386;-45
2023/12/25 03:17:55;;;;;;;;;;;17.60;64.50;;;;;;10266924;28;95923;-47
2023/12/25 03:22:57;;;;;;;;;;;17.60;64.40;;;;;;10265272;28;94306;-49
2023/12/25 03:27:59;;;;;;;;;;;17.60;64.10;;;;;;10275804;28;93896;-45
2023/12/25 03:33:01;;;;;;;;;;;17.60;63.80;;;;;;10284704;28;93917;-44
2023/12/25 03:38:03;;;;;;;;;;;17.50;63.60;;;;;;10290537;28;94275;-45
2023/12/25 03:43:05;;;;;;;;;;;17.50;63.30;;;;;;10263929;28;94680;-45
2023/12/25 03:48:06;;;;;;;;;;;17.50;63.30;;;;;;10272934;28;93439;-45
2023/12/25 03:53:09;;;;;;;;;;;17.50;63.00;;;;;;10263033;28;93240;-59
2023/12/25 03:58:10;;;;;;;;;;;17.50;63.50;;;;;;10284974;28;93584;-43
2023/12/25 04:03:12;;;;;;;;;;;17.50;64.10;;;;;;10262534;28;94105;-44
2023/12/25 04:08:14;;;;;;;;;;;17.50;64.10;;;;;;10277186;28;95763;-49
2023/12/25 04:13:16;;;;;;;;;;;17.50;63.90;;;;;;10274329;28;93452;-49
2023/12/25 04:18:17;;;;;;;;;;;17.50;63.80;;;;;;10283706;28;93475;-43
2023/12/25 04:23:19;;;;;;;;;;;17.50;63.50;;;;;;10267834;28;94187;-47
2023/12/25 04:28:21;;;;;;;;;;;17.50;63.30;;;;;;10253576;28;93462;-49
2023/12/25 04:33:23;;;;;;;;;;;17.50;63.00;;;;;;10263375;28;93411;-49
2023/12/25 04:38:25;;;;;;;;;;;17.50;63.00;;;;;;10275753;28;94026;-47
2023/12/25 04:43:26;;;;;;;;;;;17.40;63.50;;;;;;10271845;28;92748;-43
2023/12/25 04:48:29;;;;;;;;;;;17.40;63.80;;;;;;10261569;28;94510;-43
2023/12/25 04:53:33;;;;;;;;;;;17.40;64.10;;;;;;10274575;28;93436;-43
2023/12/25 04:58:35;;;;;;;;;;;17.30;64.40;;;;;;10257948;28;95708;-43
2023/12/25 05:03:37;;;;;;;;;;;17.30;64.60;;;;;;10261912;28;93559;-43
2023/12/25 05:08:39;;;;;;;;;;;17.30;64.90;;;;;;10254162;28;94306;-43
2023/12/25 05:13:41;;;;;;;;;;;17.30;65.10;;;;;;10270364;28;94415;-44
2023/12/25 05:18:42;;;;;;;;;;;17.20;65.20;;;;;;10287352;28;93772;-43
2023/12/25 05:23:44;;;;;;;;;;;17.20;65.40;;;;;;10284193;28;94568;-45
2023/12/25 05:28:46;;;;;;;;;;;17.20;65.40;;;;;;10253668;28;93498;-44
2023/12/25 05:33:48;;;;;;;;;;;17.20;65.60;;;;;;10249641;28;94183;-43
2023/12/25 05:38:52;;;;;;;;;;;17.20;65.80;;;;;;10260533;28;94110;-44
2023/12/25 05:44:13;;;;;;;;;;;17.20;65.80;;;;;;10268067;28;93059;-47
2023/12/25 05:49:15;;;;;;;;;;;17.20;66.90;;;;;;10261873;28;96170;-45
2023/12/25 05:54:17;;;;;;;;;;;17.20;66.00;;;;;;10283572;28;93443;-43
2023/12/25 05:59:19;;;;;;;;;;;17.20;66.10;;;;;;10263010;28;94524;-46
2023/12/25 06:04:22;;;;;;;;;;;17.20;66.10;;;;;;10284499;28;93292;-45
2023/12/25 06:09:25;;;;;;;;;;;17.20;66.20;;;;;;10250352;28;93500;-46
2023/12/25 06:14:27;;;;;;;;;;;17.20;66.20;;;;;;10273807;28;94429;-47
2023/12/25 06:19:31;;;;;;;;;;;17.20;66.30;;;;;;10261292;28;93426;-43
2023/12/25 06:24:33;;;;;;;;;;;17.20;66.40;;;;;;10268839;28;92694;-46
2023/12/25 06:29:35;;;;;;;;;;;17.20;66.40;;;;;;10270983;28;94411;-45
2023/12/25 06:34:36;;;;;;;;;;;17.20;66.60;;;;;;10285038;28;94258;-45
2023/12/25 06:39:38;;;;;;;;;;;17.20;66.60;;;;;;10273463;28;95849;-44
2023/12/25 06:44:40;;;;;;;;;;;17.20;66.60;;;;;;10259657;28;94123;-46
2023/12/25 06:49:42;;;;;;;;;;;17.10;66.80;;;;;;10275466;28;93838;-44
2023/12/25 06:54:44;;;;;;;;;;;17.20;66.80;;;;;;10266041;28;94418;-44
2023/12/25 06:59:46;;;;;;;;;;;17.20;66.80;;;;;;10269019;28;94398;-44
2023/12/25 07:04:48;;;;;;;;;;;17.20;67.60;;;;;;10286574;28;93293;-45
2023/12/25 07:09:50;;;;;;;;;;;17.20;67.80;;;;;;10288351;28;93447;-43
2023/12/25 07:14:52;;;;;;;;;;;17.30;68.10;;;;;;10262410;28;93761;-43
2023/12/25 07:19:53;;;;;;;;;;;17.30;68.30;;;;;;10290058;28;93480;-48
2023/12/25 07:24:55;;;;;;;;;;;17.30;68.50;;;;;;10249228;28;94486;-43
2023/12/25 07:29:57;;;;;;;;;;;17.30;68.30;;;;;;10263735;28;95865;-45
2023/12/25 07:34:59;;;;;;;;;;;17.30;68.30;;;;;;10272009;28;93751;-43
2023/12/25 07:40:01;;;;;;;;;;;17.20;68.20;;;;;;10281942;28;93936;-44
2023/12/25 07:45:03;;;;;;;;;;;17.20;68.20;;;;;;10283736;28;94673;-44
2023/12/25 07:50:06;;;;;;;;;;;17.20;68.20;;;;;;10272849;28;94603;-43
2023/12/25 07:55:08;;;;;;;;;;;17.20;68.30;;;;;;10277594;28;93469;-45
2023/12/25 08:00:10;;;;;;;;;;;17.20;68.40;;;;;;10283102;28;93671;-44
2023/12/25 08:05:12;;;;;;;;;;;17.10;68.30;;;;;;10280860;28;93489;-43
2023/12/25 08:10:14;;;;;;;;;;;17.10;68.30;;;;;;10273398;28;94999;-44
2023/12/25 08:15:16;;;;;;;;;;;17.10;68.30;;;;;;10267004;28;93454;-45
2023/12/25 08:20:19;;;;;;;;;;;17.10;68.40;;;;;;10263514;28;96928;-44
2023/12/25 08:25:20;;;;;;;;;;;17.10;68.40;;;;;;10262812;28;94477;-48
2023/12/25 08:30:22;;;;;;;;;;;17.10;68.40;;;;;;10267569;28;93585;-47
2023/12/25 08:35:24;;;;;;;;;;;17.10;68.50;;;;;;10275023;28;93623;-46
2023/12/25 08:40:26;;;;;;;;;;;17.10;68.40;;;;;;10280536;28;94079;-44
2023/12/25 08:45:28;;;;;;;;;;;17.00;68.40;;;;;;10272880;28;92547;-44
2023/12/25 08:50:29;;;;;;;;;;;17.10;68.50;;;;;;10287532;28;94159;-48
2023/12/25 08:55:31;;;;;;;;;;;17.10;68.50;;;;;;10273467;28;93263;-44
2023/12/25 09:00:33;;;;;;;;;;;17.10;68.50;;;;;;10278347;28;93404;-43
2023/12/25 09:05:35;;;;;;;;;;;17.10;68.50;;;;;;10255294;28;94312;-44
2023/12/25 09:10:37;;;;;;;;;;;17.00;68.50;;;;;;10269423;28;96781;-43
2023/12/25 09:15:39;;;;;;;;;;;17.10;69.50;;;;;;10280603;28;93707;-44
2023/12/25 09:20:40;;;;;;;;;;;17.00;68.50;;;;;;10278299;28;93824;-46
2023/12/25 09:25:43;;;;;;;;;;;17.00;68.50;;;;;;10268845;28;94004;-43
2023/12/25 09:30:45;;;;;;;;;;;17.10;68.60;;;;;;10276167;28;94241;-43
2023/12/25 09:35:47;;;;;;;;;;;17.10;68.50;;;;;;10261062;28;94336;-43
2023/12/25 09:40:48;;;;;;;;;;;17.10;68.50;;;;;;10266322;28;93583;-47
2023/12/25 09:45:50;;;;;;;;;;;17.00;68.40;;;;;;10267357;28;94210;-43
2023/12/25 09:50:52;;;;;;;;;;;17.10;68.50;;;;;;10274161;28;94296;-45
2023/12/25 09:55:54;;;;;;;;;;;17.10;68.60;;;;;;10251616;28;93720;-44
2023/12/25 10:00:56;;;;;;;;;;;17.10;68.50;;;;;;10266908;28;96362;-43
2023/12/25 10:05:58;;;;;;;;;;;17.10;68.50;;;;;;10283550;28;93450;-43
2023/12/25 10:11:01;;;;;;;;;;;17.00;68.40;;;;;;10281199;28;94736;-49
2023/12/25 10:16:03;;;;;;;;;;;17.00;68.40;;;;;;10303110;28;94372;-49
2023/12/25 10:21:09;;;;;;;;;;;17.10;68.50;;;;;;10274980;28;94187;-48
2023/12/25 10:26:12;;;;;;;;;;;17.10;68.50;;;;;;10298262;28;93388;-48
2023/12/25 10:31:13;;;;;;;;;;;17.00;68.50;;;;;;10274968;28;93633;-43
2023/12/25 10:36:15;;;;;;;;;;;17.00;68.50;;;;;;10265257;28;92471;-43
2023/12/25 10:41:26;;;;;;;;;;;17.00;68.60;;;;;;10276462;28;93059;-44
2023/12/25 10:46:30;;;;;;;;;;;17.00;68.60;;;;;;10262577;28;93652;-43
2023/12/25 10:51:32;;;;;;;;;;;17.00;68.70;;;;;;10274906;28;96156;-49
2023/12/25 10:56:42;;;;;;;;;;;17.00;68.60;;;;;;10289384;28;94199;-48
2023/12/25 11:01:46;;;;;;;;;;;17.00;68.70;;;;;;10282673;28;93541;-47
2023/12/25 11:06:49;;;;;;;;;;;17.00;68.70;;;;;;10274776;28;94174;-48
2023/12/25 11:11:51;;;;;;;;;;;17.00;68.70;;;;;;10262758;28;93652;-43
2023/12/25 11:16:53;;;;;;;;;;;17.00;68.70;;;;;;10285781;28;93829;-48
2023/12/25 11:21:55;;;;;;;;;;;17.00;68.70;;;;;;10284550;28;94166;-44
2023/12/25 11:27:02;;;;;;;;;;;17.00;68.90;;;;;;10264555;28;92751;-48
2023/12/25 11:32:08;;;;;;;;;;;17.00;68.80;;;;;;10279652;28;94142;-45
2023/12/25 11:37:17;;;;;;;;;;;17.10;69.90;;;;;;10260988;28;94531;-44
2023/12/25 11:42:19;;;;;;;;;;;17.00;69.00;;;;;;10259943;28;96492;-45
2023/12/25 11:47:28;;;;;;;;;;;17.10;69.10;;;;;;10272399;28;93432;-44
2023/12/25 11:52:42;;;;;;;;;;;17.10;69.10;;;;;;10302611;28;95035;-48
2023/12/25 11:57:44;;;;;;;;;;;17.10;69.10;;;;;;10284933;28;93469;-49
2023/12/25 12:02:46;;;;;;;;;;;17.10;69.20;;;;;;10271834;28;94496;-46
2023/12/25 12:07:48;;;;;;;;;;;17.10;69.30;;;;;;10279853;28;93628;-45
2023/12/25 12:12:50;;;;;;;;;;;17.20;69.50;;;;;;10273519;28;93930;-47
2023/12/25 12:17:52;;;;;;;;;;;17.40;69.40;;;;;;10264490;28;92658;-44
2023/12/25 12:22:54;;;;;;;;;;;17.50;69.20;;;;;;10255871;28;93667;-45
2023/12/25 12:27:56;;;;;;;;;;;17.70;68.90;;;;;;10268881;28;93505;-45
2023/12/25 12:32:58;;;;;;;;;;;17.90;68.60;;;;;;10262571;28;96231;-44
2023/12/25 12:38:03;;;;;;;;;;;18.00;68.40;;;;;;10277106;28;94863;-47
2023/12/25 12:43:05;;;;;;;;;;;18.10;68.20;;;;;;10273392;28;93449;-45
2023/12/25 12:48:06;;;;;;;;;;;18.10;68.10;;;;;;10285913;28;94433;-46
2023/12/25 12:53:09;;;;;;;;;;;18.10;68.10;;;;;;10274642;28;94473;-44
2023/12/25 12:58:10;;;;;;;;;;;18.10;68.10;;;;;;10262012;28;93816;-49
2023/12/25 13:03:12;;;;;;;;;;;18.10;68.20;;;;;;10264052;28;93403;-63
2023/12/25 13:08:14;;;;;;;;;;;18.10;68.30;;;;;;10270545;28;92512;-44
2023/12/25 13:13:16;;;;;;;;;;;18.20;68.20;;;;;;10258603;28;93449;-45
2023/12/25 13:18:18;;;;;;;;;;;18.20;68.30;;;;;;10267361;28;93483;-45
2023/12/25 13:23:20;;;;;;;;;;;18.10;68.50;;;;;;10273755;28;96448;-44
2023/12/25 13:28:21;;;;;;;;;;;18.10;68.60;;;;;;10270331;28;96188;-42
2023/12/25 13:33:23;;;;;;;;;;;18.20;68.60;;;;;;10259093;28;93374;-44
2023/12/25 13:38:25;;;;;;;;;;;18.20;68.50;;;;;;10253798;28;93472;-48
2023/12/25 13:43:27;;;;;;;;;;;18.20;68.50;;;;;;10260325;28;93551;-43
2023/12/25 13:48:28;;;;;;;;;;;18.20;68.60;;;;;;10279818;28;93349;-43
2023/12/25 13:53:30;;;;;;;;;;;18.20;68.60;;;;;;10258940;28;93474;-43
2023/12/25 13:58:32;;;;;;;;;;;18.30;68.70;;;;;;10276279;28;93540;-44
2023/12/25 14:03:34;;;;;;;;;;;18.30;68.50;;;;;;10265324;28;94157;-49
2023/12/25 14:08:36;;;;;;;;;;;18.30;68.30;;;;;;10254207;28;93455;-46
2023/12/25 14:13:38;;;;;;;;;;;18.30;68.30;;;;;;10258706;28;96916;-47
2023/12/25 14:18:40;;;;;;;;;;;18.20;68.40;;;;;;10292459;28;93406;-43
2023/12/25 14:23:42;;;;;;;;;;;18.30;68.50;;;;;;10281555;28;94139;-43
2023/12/25 14:28:44;;;;;;;;;;;18.30;68.40;;;;;;10286817;28;93677;-47
2023/12/25 14:33:47;;;;;;;;;;;18.30;68.40;;;;;;10278083;28;93489;-46
2023/12/25 14:38:49;;;;;;;;;;;18.20;68.30;;;;;;10279107;28;93393;-44
2023/12/25 14:43:51;;;;;;;;;;;18.30;68.60;;;;;;10269483;28;94756;-43
2023/12/25 14:48:53;;;;;;;;;;;18.30;68.60;;;;;;10272196;28;92692;-44
2023/12/25 14:53:55;;;;;;;;;;;18.30;68.50;;;;;;10281756;28;94447;-44
2023/12/25 14:58:57;;;;;;;;;;;18.30;68.50;;;;;;10270313;28;94400;-43
2023/12/25 15:03:59;;;;;;;;;;;18.30;68.40;;;;;;10283986;28;95840;-43
2023/12/25 15:09:02;;;;;;;;;;;18.20;68.50;;;;;;10279778;28;93447;-43
2023/12/25 15:14:04;;;;;;;;;;;18.20;68.60;;;;;;10275604;28;93452;-47
2023/12/25 15:19:06;;;;;;;;;;;18.30;68.60;;;;;;10282895;28;93688;-45
2023/12/25 15:24:08;;;;;;;;;;;18.20;68.50;;;;;;10282776;28;94267;-46
2023/12/25 15:29:10;;;;;;;;;;;18.20;68.60;;;;;;10277491;28;93159;-43
2023/12/25 15:34:12;;;;;;;;;;;18.20;68.60;;;;;;10272096;28;94464;-42
2023/12/25 15:39:14;;;;;;;;;;;18.20;68.70;;;;;;10283484;28;93065;-45
2023/12/25 15:44:16;;;;;;;;;;;18.30;68.70;;;;;;10294711;28;93808;-43
2023/12/25 15:49:18;;;;;;;;;;;18.20;68.50;;;;;;10269725;28;93348;-44
2023/12/25 15:54:22;;;;;;;;;;;18.20;68.50;;;;;;10256974;28;97151;-46
2023/12/25 15:59:24;;;;;;;;;;;18.20;68.50;;;;;;10285499;28;93529;-43
2023/12/25 16:04:26;;;;;;;;;;;18.20;68.70;;;;;;10283685;28;93493;-44
2023/12/25 16:09:28;;;;;;;;;;;18.20;68.50;;;;;;10279428;28;93964;-43
2023/12/25 16:14:30;;;;;;;;;;;18.20;70.00;;;;;;10275023;28;93208;-44
2023/12/25 16:19:32;;;;;;;;;;;18.30;72.20;;;;;;10274579;28;93455;-44
2023/12/25 16:24:34;;;;;;;;;;;18.30;71.10;;;;;;10268554;28;93784;-49
2023/12/25 16:29:36;;;;;;;;;;;18.40;70.30;;;;;;10272024;28;92731;-44
2023/12/25 16:34:37;;;;;;;;;;;18.40;69.80;;;;;;10288489;28;94458;-48
2023/12/25 16:39:40;;;;;;;;;;;18.50;69.90;;;;;;10266279;28;93135;-47
2023/12/25 16:44:42;;;;;;;;;;;18.50;70.70;;;;;;10276354;28;98268;-46
2023/12/25 16:49:44;;;;;;;;;;;18.50;71.90;;;;;;10272144;28;94399;-46
2023/12/25 16:54:46;;;;;;;;;;;18.40;72.70;;;;;;10258591;28;93615;-45
2023/12/25 16:59:48;;;;;;;;;;;18.40;74.00;;;;;;10263626;28;93442;-43
2023/12/25 17:04:49;;;;;;;;;;;18.40;75.60;;;;;;10274159;28;92911;-44
2023/12/25 17:09:51;;;;;;;;;;;18.40;72.80;;;;;;10269829;28;93869;-43
2023/12/25 17:14:53;;;;;;;;;;;18.50;72.80;;;;;;10273396;28;94399;-48
2023/12/25 17:19:55;;;;;;;;;;;18.50;72.60;;;;;;10293630;28;92878;-43
2023/12/25 17:24:56;;;;;;;;;;;18.40;72.30;;;;;;10274522;28;93740;-42
2023/12/25 17:29:58;;;;;;;;;;;18.40;72.80;;;;;;10281836;28;94599;-46
2023/12/25 17:35:00;;;;;;;;;;;18.40;72.40;;;;;;10270141;28;95795;-48
2023/12/25 17:40:04;;;;;;;;;;;18.40;72.30;;;;;;10285856;28;93386;-42
2023/12/25 17:45:06;;;;;;;;;;;18.40;72.20;;;;;;10243436;28;94191;-42
2023/12/25 17:50:08;;;;;;;;;;;18.30;72.20;;;;;;10270651;28;93756;-43
2023/12/25 17:55:09;;;;;;;;;;;18.30;72.20;;;;;;10262754;28;93464;-47
2023/12/25 18:00:11;;;;;;;;;;;18.30;72.20;;;;;;10282211;28;93453;-46
2023/12/25 18:05:13;;;;;;;;;;;18.20;72.20;;;;;;10269214;28;93735;-47
2023/12/25 18:10:17;;;;;;;;;;;18.20;72.20;;;;;;10268328;28;113331;-51
2023/12/25 18:15:19;;;;;;;;;;;18.20;72.30;;;;;;10277508;28;93504;-45
2023/12/25 18:20:20;;;;;;;;;;;18.10;72.20;;;;;;10272455;28;93944;-48
2023/12/25 18:25:22;;;;;;;;;;;18.10;72.30;;;;;;10298668;28;96065;-50
2023/12/25 18:30:24;;;;;;;;;;;18.10;72.30;;;;;;10267220;28;94402;-47
2023/12/25 18:35:26;;;;;;;;;;;18.00;72.20;;;;;;10270786;28;93600;-44
2023/12/25 18:40:28;;;;;;;;;;;18.00;72.10;;;;;;10278846;28;93457;-45
2023/12/25 18:45:29;;;;;;;;;;;18.00;72.20;;;;;;10281562;28;94276;-46
2023/12/25 18:50:31;;;;;;;;;;;18.00;72.20;;;;;;10276743;28;94493;-47
2023/12/25 18:55:33;;;;;;;;;;;18.00;72.20;;;;;;10263577;28;93430;-46
2023/12/25 19:00:35;;;;;;;;;;;17.90;72.20;;;;;;10264513;28;94056;-45
2023/12/25 19:05:37;;;;;;;;;;;17.90;72.20;;;;;;10284361;28;93424;-44
2023/12/25 19:10:38;;;;;;;;;;;17.90;72.20;;;;;;10258860;28;93682;-48
2023/12/25 19:15:40;;;;;;;;;;;17.90;72.10;;;;;;10274939;28;96421;-46
2023/12/25 19:20:42;;;;;;;;;;;17.90;72.10;;;;;;10282546;28;93424;-46
2023/12/25 19:25:43;;;;;;;;;;;17.90;72.00;;;;;;10254182;28;93486;-45
2023/12/25 19:30:45;;;;;;;;;;;17.90;71.90;;;;;;10279366;28;93681;-48
2023/12/25 19:35:48;;;;;;;;;;;17.90;72.00;;;;;;10267857;28;94639;-45
2023/12/25 19:40:50;;;;;;;;;;;17.90;72.00;;;;;;10287520;28;93708;-45
2023/12/25 19:45:52;;;;;;;;;;;17.90;72.00;;;;;;10298345;28;94412;-44
2023/12/25 19:50:54;;;;;;;;;;;17.90;71.90;;;;;;10270930;28;93774;-44
2023/12/25 19:55:56;;;;;;;;;;;17.90;71.80;;;;;;10269156;28;93573;-43
2023/12/25 20:00:58;;;;;;;;;;;17.90;71.80;;;;;;10263778;28;94523;-46
2023/12/25 20:06:00;;;;;;;;;;;17.90;71.70;;;;;;10270541;28;95907;-48
2023/12/25 20:11:02;;;;;;;;;;;17.90;71.80;;;;;;10295404;28;93488;-44
2023/12/25 20:16:04;;;;;;;;;;;17.90;71.80;;;;;;10283452;28;93784;-44
2023/12/25 20:21:05;;;;;;;;;;;17.90;71.80;;;;;;10285473;28;93036;-45
2023/12/25 20:26:07;;;;;;;;;;;17.90;71.70;;;;;;10270715;28;94514;-48
2023/12/25 20:31:12;;;;;;;;;;;17.90;71.60;;;;;;10261226;28;93459;-44
2023/12/25 20:36:14;;;;;;;;;;;17.90;71.60;;;;;;10265112;28;93875;-47
2023/12/25 20:41:17;;;;;;;;;;;17.90;71.60;;;;;;10264042;28;93682;-50
2023/12/25 20:46:19;;;;;;;;;;;17.90;71.50;;;;;;10266151;28;93605;-45
2023/12/25 20:51:21;;;;;;;;;;;17.80;71.60;;;;;;10265692;28;94520;-45
2023/12/25 20:56:23;;;;;;;;;;;17.80;71.60;;;;;;10255597;28;96545;-43
2023/12/25 21:01:25;;;;;;;;;;;17.80;71.70;;;;;;10264912;28;93699;-46
2023/12/25 21:06:26;;;;;;;;;;;17.80;71.70;;;;;;10266350;28;93544;-48
2023/12/25 21:11:28;;;;;;;;;;;17.80;71.70;;;;;;10272412;28;93456;-44
2023/12/25 21:16:30;;;;;;;;;;;17.80;71.70;;;;;;10285050;28;93434;-44
2023/12/25 21:21:32;;;;;;;;;;;17.80;71.80;;;;;;10271996;28;93449;-45
2023/12/25 21:26:34;;;;;;;;;;;17.90;72.00;;;;;;10273059;28;94453;-46
2023/12/25 21:31:36;;;;;;;;;;;18.00;71.60;;;;;;10279757;28;93422;-47
2023/12/25 21:36:37;;;;;;;;;;;18.00;71.30;;;;;;10292642;28;94827;-48
2023/12/25 21:41:39;;;;;;;;;;;18.00;71.40;;;;;;10282615;28;93534;-44
2023/12/25 21:46:41;;;;;;;;;;;18.00;71.40;;;;;;10277744;28;96573;-45
2023/12/25 21:51:42;;;;;;;;;;;18.00;71.50;;;;;;10278680;28;93469;-47
2023/12/25 21:56:44;;;;;;;;;;;18.00;71.60;;;;;;10261634;28;94694;-46
2023/12/25 22:01:46;;;;;;;;;;;17.90;71.50;;;;;;10262526;28;93451;-48
2023/12/25 22:06:48;;;;;;;;;;;17.90;71.50;;;;;;10274372;28;93855;-44
2023/12/25 22:11:50;;;;;;;;;;;17.90;71.60;;;;;;10274038;28;94157;-46
2023/12/25 22:16:51;;;;;;;;;;;17.80;71.60;;;;;;10275194;28;93485;-44
2023/12/25 22:21:53;;;;;;;;;;;17.80;71.70;;;;;;10267121;28;92661;-44
2023/12/25 22:26:54;;;;;;;;;;;17.80;71.70;;;;;;10281008;28;93576;-45
2023/12/25 22:31:57;;;;;;;;;;;17.80;71.70;;;;;;10262461;28;93624;-44
2023/12/25 22:36:59;;;;;;;;;;;17.80;71.70;;;;;;10272349;28;97062;-45
2023/12/25 22:42:01;;;;;;;;;;;17.80;71.80;;;;;;10263541;28;93299;-47
2023/12/25 22:47:03;;;;;;;;;;;17.70;71.80;;;;;;10266821;28;93568;-47
2023/12/25 22:52:05;;;;;;;;;;;17.70;71.80;;;;;;10273664;28;94105;-46
2023/12/25 22:57:06;;;;;;;;;;;17.70;71.80;;;;;;10274304;28;93486;-46
2023/12/25 23:02:08;;;;;;;;;;;17.70;71.80;;;;;;10257295;28;93429;-44
2023/12/25 23:07:10;;;;;;;;;;;17.70;71.80;;;;;;10269534;28;93104;-45
2023/12/25 23:12:11;;;;;;;;;;;17.60;71.80;;;;;;10269585;28;92794;-46
2023/12/25 23:17:13;;;;;;;;;;;17.70;71.70;;;;;;10302613;28;94878;-49
2023/12/25 23:22:18;;;;;;;;;;;17.60;70.60;;;;;;10267688;28;94678;-45
2023/12/25 23:27:19;;;;;;;;;;;17.60;70.10;;;;;;10249958;28;95814;-44
2023/12/25 23:32:21;;;;;;;;;;;17.60;69.60;;;;;;10260611;28;94856;-44
2023/12/25 23:37:23;;;;;;;;;;;17.60;69.10;;;;;;10267556;28;94287;-44
2023/12/25 23:42:25;;;;;;;;;;;17.60;68.70;;;;;;10268655;28;94311;-47
2023/12/25 23:47:27;;;;;;;;;;;17.60;68.40;;;;;;10286600;28;94107;-45
2023/12/25 23:52:29;;;;;;;;;;;17.50;67.80;;;;;;10278857;28;94234;-46
2023/12/25 23:57:30;;;;;;;;;;;17.50;68.00;;;;;;10273396;28;93787;-47
